Canmer, Kentucky
Current Conditions -  °F | °C
As of 6:55 AM on Thursday 27 Nov 2014 (Local Time) from KGLW Reporting Station
Overcast Overcast  
Wind Chill: 27°   Ceiling: 1200
Heat Index: 33°   Visibility: 10mi
Dew Point: 32°   Wind: 6mph
Humidity: 96%   Direction: 330°NNW
Pressure: 30.27"   Gusts: NA
Location:  37.29°N, 85.77°W
Report Text: KGLW 271255Z AUTO 33005KT 10SM BKN012 OVC035 01/00 A3027 RMK AO2 T00050000
Loading
Personal Weather Stations






























Interactive Weather Map New forecast layout! Learn more

10-Day Weather Forecast

Advertisements
Track Severe Weather on mobile